Time;durP1;ratioP1;P1;durP2;ratioP2;P2;SDS_P1;SDS_P2;PMS_P1;PMS_P2;Temp;Humidity;BMP_temperature;BMP_pressure;BME280_temperature;BME280_humidity;BME280_pressure;Samples;Min_cycle;Max_cycle;Signal;HPM_P1;HPM_P2
2023/09/04 00:01:29;;;;;;;3.93;2.60;;;16.40;98.00;;;;;;5051760;28;20457;-70
2023/09/04 00:03:57;;;;;;;5.37;3.37;;;16.40;98.00;;;;;;5051970;28;20528;-69
2023/09/04 00:06:24;;;;;;;5.03;3.20;;;16.40;98.00;;;;;;5051961;28;20975;-69
2023/09/04 00:08:57;;;;;;;4.70;3.10;;;16.30;98.00;;;;;;5051742;28;20481;-69
2023/09/04 00:11:25;;;;;;;5.43;3.37;;;16.40;98.00;;;;;;5051561;28;20454;-71
2023/09/04 00:13:52;;;;;;;8.53;3.40;;;16.40;98.00;;;;;;5051449;28;20524;-69
2023/09/04 00:16:22;;;;;;;5.67;3.50;;;16.40;98.00;;;;;;5051474;28;20450;-69
2023/09/04 00:18:50;;;;;;;7.00;2.83;;;16.50;98.00;;;;;;5051066;28;20450;-69
2023/09/04 00:21:17;;;;;;;5.27;3.20;;;16.60;98.00;;;;;;5051471;28;20472;-69
2023/09/04 00:23:44;;;;;;;5.67;3.33;;;16.60;98.00;;;;;;5051436;28;20450;-70
2023/09/04 00:26:11;;;;;;;6.87;3.53;;;16.60;98.00;;;;;;5051318;28;20472;-69
2023/09/04 00:28:38;;;;;;;5.27;3.10;;;16.40;98.00;;;;;;5051330;28;20461;-70
2023/09/04 00:31:05;;;;;;;5.23;3.30;;;16.30;98.00;;;;;;5051279;28;20461;-70
2023/09/04 00:33:34;;;;;;;5.17;2.97;;;16.20;98.00;;;;;;5051168;28;20532;-71
2023/09/04 00:36:02;;;;;;;5.70;3.40;;;16.10;98.00;;;;;;5033526;28;20446;-69
2023/09/04 00:38:29;;;;;;;5.60;3.20;;;16.20;98.00;;;;;;5051047;28;20453;-69
2023/09/04 00:40:56;;;;;;;4.20;2.83;;;16.20;98.00;;;;;;5051271;28;20462;-69
2023/09/04 00:43:23;;;;;;;5.53;3.30;;;16.20;98.00;;;;;;5033309;28;20458;-70
2023/09/04 00:45:51;;;;;;;4.77;3.23;;;16.20;98.00;;;;;;5051030;28;20450;-69
2023/09/04 00:48:19;;;;;;;8.63;2.83;;;16.30;98.00;;;;;;5033314;28;20454;-70
2023/09/04 00:50:48;;;;;;;5.63;3.13;;;16.20;98.00;;;;;;5050830;28;20536;-70
2023/09/04 00:53:15;;;;;;;4.23;3.00;;;16.20;98.00;;;;;;5050871;28;20486;-70
2023/09/04 00:55:42;;;;;;;5.73;3.20;;;16.20;98.00;;;;;;5033293;28;20453;-70
2023/09/04 00:58:09;;;;;;;5.47;3.20;;;16.10;98.00;;;;;;5051055;28;20457;-69
2023/09/04 01:00:37;;;;;;;4.80;3.33;;;16.00;98.00;;;;;;5051119;28;20454;-69
2023/09/04 01:03:04;;;;;;;6.40;3.20;;;16.10;98.00;;;;;;5051118;28;20749;-69
2023/09/04 01:05:32;;;;;;;4.57;2.70;;;16.10;98.00;;;;;;5050862;28;20798;-69
2023/09/04 01:08:01;;;;;;;3.87;2.80;;;16.10;98.00;;;;;;5050872;28;20489;-69
2023/09/04 01:10:34;;;;;;;5.87;3.60;;;16.20;98.00;;;;;;5050706;28;20861;-70
2023/09/04 01:13:07;;;;;;;4.77;3.00;;;16.40;98.00;;;;;;5050735;28;20549;-69
2023/09/04 01:15:34;;;;;;;5.77;3.20;;;16.40;98.00;;;;;;5050590;28;20680;-70
2023/09/04 01:18:03;;;;;;;4.63;3.13;;;16.40;98.00;;;;;;5050828;28;20484;-69
2023/09/04 01:20:32;;;;;;;6.50;3.60;;;16.30;98.00;;;;;;5050414;28;20936;-71
2023/09/04 01:23:00;;;;;;;4.27;2.90;;;16.10;98.00;;;;;;5050861;28;20545;-70
2023/09/04 01:25:38;;;;;;;4.73;3.10;;;16.00;98.00;;;;;;5050620;28;20531;-69
2023/09/04 01:28:19;;;;;;;4.73;3.10;;;16.00;98.00;;;;;;5050652;28;20944;-69
2023/09/04 01:30:57;;;;;;;5.43;2.93;;;16.00;98.00;;;;;;5035054;28;20453;-70
2023/09/04 01:33:32;;;;;;;4.83;3.20;;;15.90;98.00;;;;;;5054670;28;20856;-70
2023/09/04 01:36:04;;;;;;;4.43;3.07;;;16.00;98.00;;;;;;5054322;28;20461;-70
2023/09/04 01:38:33;;;;;;;6.90;3.47;;;15.80;98.00;;;;;;5054506;28;20453;-69
2023/09/04 01:41:05;;;;;;;6.07;3.63;;;15.90;98.00;;;;;;5048206;28;20608;-70
2023/09/04 01:43:34;;;;;;;6.87;3.53;;;15.90;98.00;;;;;;5034441;28;20541;-70
2023/09/04 01:46:01;;;;;;;7.83;3.43;;;15.80;98.00;;;;;;5034529;28;21010;-70
2023/09/04 01:48:28;;;;;;;4.17;3.10;;;15.80;98.00;;;;;;5034333;28;20455;-69
2023/09/04 01:50:55;;;;;;;5.60;3.50;;;15.70;98.00;;;;;;5034601;28;20454;-69
2023/09/04 01:53:24;;;;;;;5.27;3.50;;;15.70;98.00;;;;;;5016886;28;20461;-69
2023/09/04 01:55:51;;;;;;;4.30;3.03;;;15.60;98.00;;;;;;5034489;28;20455;-70
2023/09/04 01:58:18;;;;;;;6.13;3.30;;;15.70;98.00;;;;;;5016790;28;20458;-70
2023/09/04 02:00:47;;;;;;;3.97;2.97;;;15.70;98.00;;;;;;5034170;28;20512;-69
2023/09/04 02:03:14;;;;;;;5.07;3.30;;;15.80;98.00;;;;;;5034342;28;20462;-71
2023/09/04 02:05:42;;;;;;;5.80;3.40;;;15.80;98.00;;;;;;5034070;28;20814;-70
2023/09/04 02:08:09;;;;;;;7.63;3.23;;;15.90;98.00;;;;;;5034024;28;20485;-70
2023/09/04 02:10:41;;;;;;;9.90;3.23;;;15.80;98.00;;;;;;5034112;28;20461;-70
2023/09/04 02:13:09;;;;;;;6.30;3.07;;;15.60;98.00;;;;;;5034028;28;20617;-69
2023/09/04 02:15:38;;;;;;;7.07;4.00;;;15.60;98.00;;;;;;5016064;28;20458;-69
2023/09/04 02:18:05;;;;;;;5.20;3.70;;;15.70;98.00;;;;;;5033784;28;20450;-70
2023/09/04 02:20:33;;;;;;;6.30;3.47;;;15.60;98.00;;;;;;5033706;28;20477;-70
2023/09/04 02:23:00;;;;;;;4.70;3.10;;;15.60;98.00;;;;;;5033736;28;20459;-69
2023/09/04 02:25:28;;;;;;;5.20;2.80;;;15.50;98.00;;;;;;5016353;28;20497;-69
2023/09/04 02:27:56;;;;;;;5.27;3.27;;;15.50;98.00;;;;;;5033662;28;20482;-69
2023/09/04 02:30:23;;;;;;;5.50;3.60;;;15.60;98.00;;;;;;5033451;28;20504;-69
2023/09/04 02:32:54;;;;;;;4.80;3.20;;;15.60;98.00;;;;;;5033638;28;20473;-70
2023/09/04 02:35:21;;;;;;;4.90;3.40;;;15.60;98.00;;;;;;5033630;28;20482;-69
2023/09/04 02:37:48;;;;;;;5.97;3.80;;;15.70;98.00;;;;;;5033593;28;20924;-69
2023/09/04 02:40:16;;;;;;;6.37;3.20;;;15.60;98.00;;;;;;5033497;28;20537;-70
2023/09/04 02:42:42;;;;;;;5.80;3.00;;;15.60;98.00;;;;;;5032701;28;20454;-71
2023/09/04 02:45:12;;;;;;;5.10;3.30;;;15.60;98.00;;;;;;5033326;28;20471;-70
2023/09/04 02:47:39;;;;;;;5.00;3.30;;;15.60;98.00;;;;;;5033418;28;20528;-70
2023/09/04 02:50:07;;;;;;;4.97;3.30;;;15.60;98.00;;;;;;5033509;28;20942;-69
2023/09/04 02:52:34;;;;;;;6.00;3.17;;;15.60;98.00;;;;;;5015817;28;20466;-69
2023/09/04 02:55:02;;;;;;;6.90;3.13;;;15.60;98.00;;;;;;5033095;28;20483;-69
2023/09/04 02:57:31;;;;;;;5.17;3.20;;;15.40;98.00;;;;;;5015600;28;20450;-69
2023/09/04 02:59:59;;;;;;;4.63;2.90;;;15.40;98.00;;;;;;5033076;28;20463;-70
2023/09/04 03:02:27;;;;;;;7.30;3.60;;;15.30;98.00;;;;;;5015484;28;20825;-70
2023/09/04 03:04:54;;;;;;;4.33;3.20;;;15.20;98.00;;;;;;5032819;28;20466;-70
2023/09/04 03:07:22;;;;;;;4.70;3.20;;;15.10;98.00;;;;;;5032960;28;20513;-69
2023/09/04 03:09:55;;;;;;;4.07;2.73;;;15.10;98.00;;;;;;5032830;28;20541;-70
2023/09/04 03:12:22;;;;;;;4.27;2.83;;;15.20;98.00;;;;;;5032921;28;20455;-69
2023/09/04 03:14:56;;;;;;;10.20;3.47;;;15.20;98.00;;;;;;5032667;28;20514;-69
2023/09/04 03:17:23;;;;;;;8.63;3.10;;;15.20;98.00;;;;;;5032814;28;21011;-69
2023/09/04 03:19:52;;;;;;;5.23;3.23;;;15.20;98.00;;;;;;5032712;28;20458;-69
2023/09/04 03:22:19;;;;;;;7.00;3.80;;;15.20;98.00;;;;;;5032837;28;20541;-71
2023/09/04 03:24:47;;;;;;;7.90;3.70;;;15.20;98.00;;;;;;5032757;28;20450;-69
2023/09/04 03:27:14;;;;;;;7.03;3.70;;;15.10;98.00;;;;;;5032602;28;20450;-69
2023/09/04 03:29:42;;;;;;;4.63;3.50;;;15.00;98.00;;;;;;5032436;28;20862;-69
2023/09/04 03:32:09;;;;;;;4.57;2.80;;;15.00;98.00;;;;;;5015132;28;20453;-69
2023/09/04 03:34:37;;;;;;;4.20;3.03;;;15.00;98.00;;;;;;5032229;28;20478;-70
2023/09/04 03:37:06;;;;;;;4.90;2.87;;;15.10;98.00;;;;;;5032379;28;20968;-69
2023/09/04 03:39:37;;;;;;;6.73;3.50;;;15.00;98.00;;;;;;5032232;28;20552;-69
2023/09/04 03:42:04;;;;;;;5.73;3.60;;;15.10;98.00;;;;;;5032274;28;20520;-70
2023/09/04 03:44:31;;;;;;;5.40;2.90;;;15.00;98.00;;;;;;5032487;28;20451;-69
2023/09/04 03:46:58;;;;;;;6.07;3.27;;;15.00;98.00;;;;;;5032396;28;20457;-69
2023/09/04 03:49:25;;;;;;;5.93;3.43;;;15.00;98.00;;;;;;5032264;28;20481;-69
2023/09/04 03:51:52;;;;;;;5.70;3.37;;;14.90;98.00;;;;;;5014612;28;20473;-70
2023/09/04 03:54:22;;;;;;;6.33;3.17;;;14.90;98.00;;;;;;5031162;28;20488;-70
2023/09/04 03:56:49;;;;;;;5.40;3.03;;;15.00;98.00;;;;;;5032341;28;20458;-70
2023/09/04 03:59:17;;;;;;;4.60;3.00;;;15.00;98.00;;;;;;5032150;28;20477;-70
2023/09/04 04:01:44;;;;;;;5.57;3.10;;;14.90;98.00;;;;;;5014308;28;20454;-69
2023/09/04 04:04:11;;;;;;;4.90;3.50;;;14.80;98.00;;;;;;5032006;28;20454;-70
2023/09/04 04:06:39;;;;;;;6.57;3.57;;;14.70;98.00;;;;;;5032287;28;20490;-69
2023/09/04 04:09:06;;;;;;;5.40;3.20;;;14.70;98.00;;;;;;5033155;28;20503;-70
2023/09/04 04:11:35;;;;;;;5.60;3.47;;;14.60;98.00;;;;;;5033042;28;20546;-70
2023/09/04 04:14:03;;;;;;;6.73;3.40;;;14.60;98.00;;;;;;5014030;28;20490;-70
2023/09/04 04:16:32;;;;;;;8.37;3.60;;;14.70;98.00;;;;;;5032008;28;20974;-69
2023/09/04 04:18:59;;;;;;;5.77;3.67;;;14.60;98.00;;;;;;5032239;28;20485;-70
2023/09/04 04:21:27;;;;;;;7.13;3.80;;;14.60;98.00;;;;;;5032201;28;20524;-69
2023/09/04 04:23:54;;;;;;;5.37;3.50;;;14.60;98.00;;;;;;5031606;28;21019;-69
2023/09/04 04:26:21;;;;;;;5.87;3.30;;;14.70;98.00;;;;;;5031541;28;20457;-69
2023/09/04 04:28:49;;;;;;;4.30;2.80;;;14.70;98.00;;;;;;5031554;28;20446;-70
2023/09/04 04:31:16;;;;;;;7.50;3.67;;;14.70;98.00;;;;;;5031357;28;20455;-69
2023/09/04 04:33:44;;;;;;;5.77;3.53;;;14.60;98.00;;;;;;5031451;28;20459;-69
2023/09/04 04:36:11;;;;;;;7.40;3.17;;;14.60;98.00;;;;;;5031567;28;20489;-69
2023/09/04 04:38:39;;;;;;;5.93;3.27;;;14.60;98.00;;;;;;5013932;28;20454;-70
2023/09/04 04:41:06;;;;;;;6.27;3.67;;;14.70;98.00;;;;;;5031626;28;20562;-69
2023/09/04 04:43:33;;;;;;;5.70;3.33;;;14.60;98.00;;;;;;5031620;28;20450;-70
2023/09/04 04:46:02;;;;;;;5.13;3.07;;;14.70;98.00;;;;;;5031407;28;20466;-70
2023/09/04 04:48:32;;;;;;;5.23;2.93;;;14.90;98.00;;;;;;5031158;28;20447;-69
2023/09/04 04:50:59;;;;;;;5.83;3.73;;;14.90;98.00;;;;;;5031069;28;20447;-69
2023/09/04 04:53:27;;;;;;;6.10;3.47;;;15.00;98.00;;;;;;5031199;28;20458;-69
2023/09/04 04:55:54;;;;;;;7.70;3.90;;;15.00;98.00;;;;;;5030760;28;20475;-69
2023/09/04 04:58:21;;;;;;;13.10;4.17;;;14.90;98.00;;;;;;5031107;28;20454;-70
2023/09/04 05:00:49;;;;;;;6.37;3.53;;;14.90;98.00;;;;;;5031004;28;20458;-69
2023/09/04 05:03:18;;;;;;;9.50;3.97;;;14.90;98.00;;;;;;5030952;28;20505;-70
2023/09/04 05:05:46;;;;;;;9.50;3.70;;;14.80;98.00;;;;;;5030732;28;20465;-70
2023/09/04 05:08:13;;;;;;;6.90;3.47;;;14.70;98.00;;;;;;5031293;28;20792;-69
2023/09/04 05:10:40;;;;;;;6.20;3.50;;;14.70;98.00;;;;;;5030879;28;20469;-69
2023/09/04 05:13:07;;;;;;;6.13;3.67;;;14.60;98.00;;;;;;5031261;28;20451;-69
2023/09/04 05:15:34;;;;;;;5.50;3.47;;;14.50;98.00;;;;;;5030699;28;20485;-69
2023/09/04 05:18:01;;;;;;;8.83;4.00;;;14.50;98.00;;;;;;5030846;28;20957;-69
2023/09/04 05:20:30;;;;;;;5.40;3.10;;;14.50;98.00;;;;;;5030853;28;20512;-69
2023/09/04 05:22:57;;;;;;;5.93;3.70;;;14.40;98.00;;;;;;5030893;28;20531;-69
2023/09/04 05:25:24;;;;;;;5.37;3.50;;;14.40;98.00;;;;;;5030800;28;20458;-69
2023/09/04 05:27:51;;;;;;;9.80;4.40;;;14.50;98.00;;;;;;5013439;28;20454;-70
2023/09/04 05:30:18;;;;;;;12.50;5.63;;;14.70;98.00;;;;;;5030717;28;20512;-69
2023/09/04 05:32:46;;;;;;;18.33;5.70;;;14.70;98.00;;;;;;5030813;28;20941;-69
2023/09/04 05:35:13;;;;;;;8.67;4.67;;;14.80;98.00;;;;;;5012838;28;20493;-70
2023/09/04 05:37:41;;;;;;;6.60;3.67;;;14.80;98.00;;;;;;5030795;28;20450;-70
2023/09/04 05:40:09;;;;;;;8.00;3.83;;;14.70;98.00;;;;;;5030989;28;20457;-69
2023/09/04 05:42:44;;;;;;;6.77;3.70;;;14.70;98.00;;;;;;5030968;28;20453;-70
2023/09/04 05:45:11;;;;;;;7.67;3.80;;;14.80;98.00;;;;;;5030779;28;21024;-68
2023/09/04 05:47:38;;;;;;;8.70;4.10;;;14.80;98.00;;;;;;5030696;28;20450;-69
2023/09/04 05:50:06;;;;;;;6.63;3.67;;;14.70;98.00;;;;;;5030755;28;20455;-69
2023/09/04 05:52:33;;;;;;;8.87;3.97;;;14.80;98.00;;;;;;5030596;28;20458;-69
2023/09/04 05:55:01;;;;;;;8.93;4.13;;;14.70;98.00;;;;;;5030622;28;20540;-69
2023/09/04 05:57:28;;;;;;;6.77;3.87;;;14.60;98.00;;;;;;5030591;28;20453;-68
2023/09/04 05:59:55;;;;;;;7.63;4.33;;;14.60;98.00;;;;;;5030831;28;20516;-69
2023/09/04 06:02:23;;;;;;;10.33;4.80;;;14.70;98.00;;;;;;5030571;28;20447;-69
2023/09/04 06:04:50;;;;;;;6.07;3.40;;;14.80;98.00;;;;;;5030650;28;20470;-69
2023/09/04 06:07:17;;;;;;;7.70;3.80;;;14.70;98.00;;;;;;5030599;28;20461;-69
2023/09/04 06:09:45;;;;;;;15.10;4.20;;;14.80;98.00;;;;;;5030597;28;20862;-69
2023/09/04 06:12:13;;;;;;;8.70;3.93;;;14.90;98.00;;;;;;5030597;28;20545;-69
2023/09/04 06:14:42;;;;;;;8.53;4.30;;;15.00;98.00;;;;;;5030308;28;20462;-69
2023/09/04 06:17:09;;;;;;;8.27;4.10;;;15.10;98.00;;;;;;5032081;28;20529;-68
2023/09/04 06:19:36;;;;;;;10.83;3.90;;;15.20;98.00;;;;;;5034050;28;20455;-69
2023/09/04 06:22:05;;;;;;;5.23;3.60;;;15.30;98.00;;;;;;5033870;28;20454;-68
2023/09/04 06:24:33;;;;;;;7.27;4.07;;;15.40;98.00;;;;;;5033861;28;20949;-69
2023/09/04 06:27:00;;;;;;;6.30;3.77;;;15.60;98.00;;;;;;5033977;28;20537;-68
2023/09/04 06:29:28;;;;;;;7.40;4.10;;;15.60;98.00;;;;;;5033960;28;20451;-68
2023/09/04 06:31:55;;;;;;;7.40;3.80;;;15.80;98.00;;;;;;5034084;28;20959;-72
2023/09/04 06:34:22;;;;;;;8.20;4.00;;;15.90;98.00;;;;;;5016658;28;20794;-72
2023/09/04 06:36:50;;;;;;;9.10;4.40;;;16.00;98.00;;;;;;5033615;28;20847;-72
2023/09/04 06:39:17;;;;;;;6.50;4.00;;;16.10;98.00;;;;;;5034142;28;20461;-72
2023/09/04 06:41:43;;;;;;;7.57;4.00;;;16.20;98.00;;;;;;5033743;28;20859;-72
2023/09/04 06:44:10;;;;;;;6.60;3.90;;;16.20;98.00;;;;;;5034127;28;20454;-72
2023/09/04 06:46:39;;;;;;;8.27;3.77;;;16.20;98.00;;;;;;5033397;28;20454;-72
2023/09/04 06:49:06;;;;;;;8.37;4.30;;;16.20;98.00;;;;;;5033590;28;20466;-72
2023/09/04 06:51:34;;;;;;;6.73;4.07;;;16.30;98.00;;;;;;5032834;28;20469;-72
2023/09/04 06:54:01;;;;;;;6.93;3.83;;;16.40;98.00;;;;;;5033434;28;20461;-71
2023/09/04 06:56:28;;;;;;;7.13;4.13;;;16.50;98.00;;;;;;5033274;28;20684;-72
2023/09/04 06:58:56;;;;;;;5.90;3.67;;;16.50;98.00;;;;;;5033695;28;20465;-72
2023/09/04 07:01:23;;;;;;;10.23;4.10;;;16.60;98.00;;;;;;5033243;28;20980;-72
2023/09/04 07:03:52;;;;;;;6.40;3.73;;;16.70;98.00;;;;;;5033235;28;20676;-72
2023/09/04 07:06:19;;;;;;;7.33;4.10;;;16.80;98.00;;;;;;5033390;28;20454;-72
2023/09/04 07:08:46;;;;;;;5.90;3.80;;;16.90;98.00;;;;;;5033221;28;20454;-72
2023/09/04 07:11:13;;;;;;;9.13;4.70;;;17.00;98.00;;;;;;5033088;28;20522;-72
2023/09/04 07:13:41;;;;;;;7.03;4.20;;;17.00;98.00;;;;;;5015544;28;20827;-72
2023/09/04 07:16:08;;;;;;;7.33;4.53;;;17.10;98.00;;;;;;5032829;28;20487;-72
2023/09/04 07:18:35;;;;;;;8.20;4.17;;;17.30;98.00;;;;;;5032871;28;20875;-72
2023/09/04 07:21:03;;;;;;;9.07;4.60;;;17.40;98.00;;;;;;5032742;28;20454;-72
2023/09/04 07:23:30;;;;;;;8.30;4.47;;;17.50;98.00;;;;;;5032849;28;20466;-72
2023/09/04 07:25:58;;;;;;;5.93;4.00;;;17.60;98.00;;;;;;5033047;28;20517;-72
2023/09/04 07:28:25;;;;;;;7.43;4.50;;;17.70;98.00;;;;;;5033383;28;20447;-72
2023/09/04 07:31:09;;;;;;;6.30;4.00;;;17.80;98.00;;;;;;5033490;28;20455;-72
2023/09/04 07:33:36;;;;;;;7.30;4.53;;;17.90;98.00;;;;;;5033343;28;20462;-72
2023/09/04 07:36:05;;;;;;;8.10;4.47;;;18.20;98.00;;;;;;5033188;28;20486;-72
2023/09/04 07:38:32;;;;;;;7.53;4.30;;;18.30;98.00;;;;;;5033151;28;20458;-72
2023/09/04 07:41:03;;;;;;;7.60;4.50;;;18.40;98.00;;;;;;5033216;28;20933;-72
2023/09/04 07:43:31;;;;;;;8.23;5.10;;;18.70;98.00;;;;;;5032996;28;20483;-72
2023/09/04 07:45:58;;;;;;;6.80;4.07;;;18.90;98.00;;;;;;5033026;28;20999;-72
2023/09/04 07:48:25;;;;;;;7.13;4.47;;;19.00;98.00;;;;;;5033268;28;20465;-72
2023/09/04 07:50:53;;;;;;;6.70;4.27;;;19.10;98.00;;;;;;5031636;28;20462;-72
2023/09/04 07:53:21;;;;;;;7.90;4.70;;;19.30;98.00;;;;;;5032490;28;20594;-72
2023/09/04 07:55:49;;;;;;;7.60;4.50;;;19.50;98.00;;;;;;5032498;28;20580;-72
2023/09/04 07:58:16;;;;;;;7.60;4.60;;;19.50;98.00;;;;;;5032780;28;20458;-72
2023/09/04 08:00:45;;;;;;;6.50;4.20;;;19.60;98.00;;;;;;5032642;28;20469;-72
2023/09/04 08:03:13;;;;;;;6.77;4.57;;;19.70;98.00;;;;;;5032844;28;20940;-72
2023/09/04 08:05:41;;;;;;;9.60;5.10;;;19.80;98.00;;;;;;5032374;28;20489;-72
2023/09/04 08:08:10;;;;;;;6.20;4.30;;;20.00;98.00;;;;;;5032484;28;20509;-72
2023/09/04 08:10:40;;;;;;;7.53;4.60;;;20.10;98.00;;;;;;5032555;28;20954;-72
2023/09/04 08:13:08;;;;;;;6.80;4.07;;;20.30;98.00;;;;;;5032592;28;20482;-72
2023/09/04 08:15:35;;;;;;;6.47;4.37;;;20.50;98.00;;;;;;5032110;28;20537;-72
2023/09/04 08:18:02;;;;;;;5.70;4.03;;;20.60;98.00;;;;;;5032147;28;20446;-72
2023/09/04 08:20:31;;;;;;;7.10;4.33;;;20.80;98.00;;;;;;5032408;28;20454;-72
2023/09/04 08:22:58;;;;;;;6.80;4.30;;;20.90;98.00;;;;;;5032708;28;20973;-72
2023/09/04 08:25:25;;;;;;;8.07;4.80;;;21.10;98.00;;;;;;5032372;28;20975;-72
2023/09/04 08:27:54;;;;;;;7.33;4.77;;;21.20;98.00;;;;;;5032191;28;20952;-72
2023/09/04 08:30:21;;;;;;;9.93;4.70;;;21.30;98.00;;;;;;5231039;22;20425;-73
2023/09/04 08:32:48;;;;;;;8.63;4.70;;;21.40;98.00;;;;;;5051186;28;20450;-72
2023/09/04 08:35:17;;;;;;;8.40;4.93;;;21.60;98.00;;;;;;5051275;28;20457;-72
2023/09/04 08:37:45;;;;;;;8.93;4.80;;;21.70;98.00;;;;;;5051287;28;20496;-72
2023/09/04 08:40:13;;;;;;;6.53;4.30;;;21.90;98.00;;;;;;5050730;28;20453;-72
2023/09/04 08:42:40;;;;;;;6.47;4.30;;;22.00;98.00;;;;;;5051561;28;20888;-72
2023/09/04 08:45:10;;;;;;;7.83;4.80;;;22.10;98.00;;;;;;5051450;28;20453;-72
2023/09/04 08:47:40;;;;;;;7.20;4.40;;;22.20;98.00;;;;;;5051019;28;20453;-73
2023/09/04 08:50:10;;;;;;;9.03;4.87;;;22.30;98.00;;;;;;5051171;28;20549;-72
2023/09/04 08:52:38;;;;;;;7.40;4.37;;;22.40;98.00;;;;;;5049659;28;20450;-72
2023/09/04 08:55:06;;;;;;;11.70;5.10;;;22.60;98.00;;;;;;5051227;28;20453;-72
2023/09/04 08:57:34;;;;;;;7.00;4.37;;;22.70;98.00;;;;;;5051056;28;20477;-72
2023/09/04 09:00:03;;;;;;;9.00;4.50;;;22.80;98.00;;;;;;5051721;28;20819;-72
2023/09/04 09:02:32;;;;;;;6.37;4.33;;;23.00;98.00;;;;;;5049549;28;20453;-72
2023/09/04 09:04:59;;;;;;;6.67;4.27;;;23.20;98.00;;;;;;5051050;28;20454;-72
2023/09/04 09:07:28;;;;;;;6.93;4.63;;;23.30;98.00;;;;;;5050882;28;20457;-72
2023/09/04 09:09:59;;;;;;;6.47;4.10;;;23.30;98.00;;;;;;5049948;28;20481;-67
2023/09/04 09:12:26;;;;;;;7.87;4.17;;;23.50;98.00;;;;;;5050876;28;20461;-71
2023/09/04 09:14:54;;;;;;;8.77;4.50;;;23.60;98.00;;;;;;5049967;28;20460;-71
2023/09/04 09:17:21;;;;;;;8.63;4.57;;;23.80;98.00;;;;;;5050436;28;20564;-74
2023/09/04 09:19:49;;;;;;;6.80;4.50;;;23.90;98.00;;;;;;5051328;28;20457;-70
2023/09/04 09:22:20;;;;;;;8.03;5.00;;;24.10;98.00;;;;;;5050934;28;20453;-69
2023/09/04 09:24:50;;;;;;;7.27;4.20;;;24.10;98.00;;;;;;5051139;28;20450;-69
2023/09/04 09:27:19;;;;;;;6.90;4.20;;;24.20;98.00;;;;;;5050812;28;20537;-70
2023/09/04 09:29:47;;;;;;;7.93;4.57;;;24.40;98.00;;;;;;5049469;28;20599;-69
2023/09/04 09:32:16;;;;;;;6.10;4.30;;;24.50;98.00;;;;;;5050543;28;20548;-71
2023/09/04 09:34:50;;;;;;;6.30;4.33;;;24.60;98.00;;;;;;5050453;28;20823;-70
2023/09/04 09:37:17;;;;;;;10.03;4.40;;;24.70;98.00;;;;;;5050623;28;20512;-70
2023/09/04 09:39:44;;;;;;;5.53;3.80;;;24.80;98.00;;;;;;5050501;28;20460;-69
2023/09/04 09:42:12;;;;;;;7.00;4.40;;;24.90;98.00;;;;;;5050553;28;20472;-70
2023/09/04 09:44:39;;;;;;;6.63;4.40;;;25.00;98.00;;;;;;5050427;28;20462;-68
2023/09/04 09:47:08;;;;;;;6.40;4.40;;;25.10;98.00;;;;;;5050581;28;20549;-70
2023/09/04 09:49:37;;;;;;;6.10;3.80;;;25.30;98.00;;;;;;5050615;28;20785;-70
2023/09/04 09:52:07;;;;;;;7.83;4.57;;;25.40;98.00;;;;;;5052086;28;20496;-69
2023/09/04 09:54:37;;;;;;;5.80;4.03;;;25.50;98.00;;;;;;5054257;28;20944;-69
2023/09/04 09:57:07;;;;;;;6.03;4.13;;;25.70;98.00;;;;;;5054077;28;20864;-69
2023/09/04 09:59:35;;;;;;;5.63;4.00;;;25.80;98.00;;;;;;5054135;28;20939;-70
2023/09/04 10:02:04;;;;;;;6.80;4.30;;;25.90;98.00;;;;;;5054198;28;20489;-68
2023/09/04 10:04:32;;;;;;;6.77;4.23;;;26.10;98.00;;;;;;5054181;28;20457;-70
2023/09/04 10:07:01;;;;;;;6.93;4.53;;;26.30;98.00;;;;;;5054118;28;20450;-69
2023/09/04 10:09:35;;;;;;;8.73;4.37;;;26.40;98.00;;;;;;5054132;28;20465;-70
2023/09/04 10:12:08;;;;;;;6.10;4.10;;;26.60;98.00;;;;;;5054353;28;20468;-71
2023/09/04 10:14:41;;;;;;;8.70;4.50;;;26.70;98.00;;;;;;5054201;28;20967;-69
2023/09/04 10:17:14;;;;;;;5.57;3.53;;;26.80;98.00;;;;;;5053941;28;20568;-70
2023/09/04 10:19:44;;;;;;;6.40;4.00;;;27.00;98.00;;;;;;5053918;28;20499;-70
2023/09/04 10:22:17;;;;;;;5.87;3.70;;;27.00;94.40;;;;;;5053872;28;20461;-69
2023/09/04 10:24:54;;;;;;;10.27;4.23;;;27.20;96.90;;;;;;5053839;28;20484;-68
2023/09/04 10:27:26;;;;;;;5.57;3.90;;;27.40;96.20;;;;;;5053384;28;20460;-70
2023/09/04 10:30:01;;;;;;;7.27;4.13;;;27.60;96.60;;;;;;5053859;28;20441;-70
2023/09/04 10:32:30;;;;;;;8.27;3.73;;;27.70;92.80;;;;;;5053535;28;20793;-70
2023/09/04 10:34:57;;;;;;;5.90;3.80;;;27.70;92.60;;;;;;5053747;28;20457;-71
2023/09/04 10:37:28;;;;;;;5.67;3.97;;;27.70;92.70;;;;;;5035748;28;20478;-69
2023/09/04 10:39:57;;;;;;;5.73;3.87;;;27.90;90.90;;;;;;5053556;28;20473;-70
2023/09/04 10:42:27;;;;;;;8.13;4.33;;;28.00;91.90;;;;;;5053512;28;20489;-70
2023/09/04 10:44:56;;;;;;;5.77;3.70;;;28.10;90.80;;;;;;5053331;28;20456;-70
2023/09/04 10:47:24;;;;;;;6.30;3.90;;;28.30;91.10;;;;;;5052954;28;20460;-69
2023/09/04 10:49:52;;;;;;;5.50;4.10;;;28.40;91.00;;;;;;5053510;28;20450;-70
2023/09/04 10:52:19;;;;;;;5.70;3.90;;;28.50;89.70;;;;;;5051876;28;20450;-69
2023/09/04 10:54:46;;;;;;;8.60;4.80;;;28.60;94.10;;;;;;5053241;28;20446;-69
2023/09/04 10:57:15;;;;;;;5.67;4.00;;;28.80;92.50;;;;;;5053174;28;20486;-69
2023/09/04 11:00:07;;;;;;;4.73;3.57;;;29.00;92.90;;;;;;5053334;28;20453;-71
2023/09/04 11:02:35;;;;;;;6.03;4.00;;;29.20;91.20;;;;;;5037759;28;20458;-71
2023/09/04 11:05:03;;;;;;;4.83;3.53;;;29.30;90.70;;;;;;5053336;28;20461;-70
2023/09/04 11:07:31;;;;;;;5.73;3.87;;;29.40;90.60;;;;;;5053180;28;20951;-70
2023/09/04 11:10:28;;;;;;;4.83;3.67;;;29.60;88.30;;;;;;5053271;28;20473;-71
2023/09/04 11:12:57;;;;;;;6.50;4.17;;;29.70;88.40;;;;;;5052949;28;20460;-70
2023/09/04 11:15:27;;;;;;;5.40;3.93;;;29.80;88.80;;;;;;5052864;28;20496;-70
2023/09/04 11:17:54;;;;;;;5.20;3.90;;;29.80;87.70;;;;;;5052721;28;20586;-70
2023/09/04 11:20:26;;;;;;;5.43;3.80;;;30.10;86.80;;;;;;5052680;28;20473;-70
2023/09/04 11:22:58;;;;;;;6.83;3.90;;;30.20;87.30;;;;;;5052732;28;20932;-70
2023/09/04 11:25:25;;;;;;;5.50;3.80;;;30.30;87.50;;;;;;5052822;28;20559;-71
2023/09/04 11:27:52;;;;;;;5.67;3.57;;;30.40;85.60;;;;;;5053169;28;20442;-70
2023/09/04 11:30:21;;;;;;;6.63;3.43;;;30.60;82.30;;;;;;5052573;28;20795;-71
2023/09/04 11:32:48;;;;;;;4.83;3.53;;;30.70;80.80;;;;;;5052431;28;20860;-69
2023/09/04 11:35:16;;;;;;;3.90;3.13;;;30.80;82.90;;;;;;5052639;28;20454;-70
2023/09/04 11:37:43;;;;;;;4.97;3.33;;;31.00;78.40;;;;;;5050909;28;20512;-68
2023/09/04 11:40:11;;;;;;;5.23;3.40;;;31.10;78.70;;;;;;5052509;28;20445;-64
2023/09/04 11:42:38;;;;;;;4.77;3.40;;;31.30;80.50;;;;;;5052211;28;20544;-67
2023/09/04 11:45:09;;;;;;;5.93;3.40;;;31.40;78.10;;;;;;5052190;28;20458;-67
2023/09/04 11:47:39;;;;;;;4.33;3.10;;;31.50;79.20;;;;;;5050317;28;20454;-64
2023/09/04 11:50:14;;;;;;;5.57;3.50;;;31.60;75.70;;;;;;5052561;28;20453;-64
2023/09/04 11:52:41;;;;;;;6.37;3.60;;;31.50;76.70;;;;;;5052571;28;21009;-63
2023/09/04 11:55:09;;;;;;;6.43;3.67;;;31.60;75.90;;;;;;5052973;28;20503;-68
2023/09/04 11:57:36;;;;;;;5.10;3.47;;;31.60;75.80;;;;;;5052963;28;20517;-69
2023/09/04 12:00:07;;;;;;;4.70;3.43;;;31.60;74.60;;;;;;5052935;28;20457;-68
2023/09/04 12:02:36;;;;;;;4.63;3.40;;;31.70;76.40;;;;;;5035595;28;20453;-68
2023/09/04 12:05:05;;;;;;;5.40;3.70;;;32.10;75.90;;;;;;5052886;28;20465;-68
2023/09/04 12:07:35;;;;;;;4.77;3.37;;;32.30;76.90;;;;;;5052494;28;20521;-68
2023/09/04 12:10:03;;;;;;;4.80;3.37;;;32.40;72.80;;;;;;5052839;28;20777;-68
2023/09/04 12:12:30;;;;;;;4.83;3.30;;;32.50;71.80;;;;;;5052644;28;20446;-68
2023/09/04 12:14:57;;;;;;;4.83;3.33;;;32.50;70.00;;;;;;5051731;28;20920;-68
2023/09/04 12:17:24;;;;;;;4.60;3.30;;;32.60;69.50;;;;;;5034895;28;20489;-67
2023/09/04 12:19:51;;;;;;;4.63;3.10;;;32.60;69.40;;;;;;5052391;28;21025;-67
2023/09/04 12:22:20;;;;;;;4.80;3.43;;;32.90;71.80;;;;;;5052498;28;20450;-69
2023/09/04 12:25:04;;;;;;;4.60;3.10;;;33.10;70.50;;;;;;5052298;28;20549;-67
2023/09/04 12:27:31;;;;;;;4.40;3.13;;;33.30;71.90;;;;;;5052196;28;20454;-66
2023/09/04 12:30:01;;;;;;;5.07;3.30;;;33.50;71.20;;;;;;5052327;28;20453;-66
2023/09/04 12:32:28;;;;;;;5.93;3.63;;;33.50;69.00;;;;;;5052144;28;20500;-67
2023/09/04 12:35:01;;;;;;;3.93;3.10;;;33.70;71.50;;;;;;5052287;28;20974;-67
2023/09/04 12:37:33;;;;;;;4.33;3.27;;;33.90;72.30;;;;;;5051846;28;20572;-66
2023/09/04 12:40:00;;;;;;;10.90;3.67;;;34.10;72.20;;;;;;5052319;28;20453;-67
2023/09/04 12:42:27;;;;;;;5.90;3.63;;;34.20;68.80;;;;;;5052078;28;20959;-66
2023/09/04 12:44:55;;;;;;;5.50;3.73;;;34.20;69.90;;;;;;5034492;28;20461;-68
2023/09/04 12:47:22;;;;;;;4.67;3.20;;;34.20;70.50;;;;;;5052225;28;20975;-67
2023/09/04 12:49:49;;;;;;;5.50;3.37;;;34.00;69.50;;;;;;5051675;28;20512;-67
2023/09/04 12:52:19;;;;;;;5.97;3.80;;;33.80;69.60;;;;;;5060775;28;20531;-67